Time;durP1;ratioP1;P1;durP2;ratioP2;P2;SDS_P1;SDS_P2;PMS_P1;PMS_P2;Temp;Humidity;BMP_temperature;BMP_pressure;BME280_temperature;BME280_humidity;BME280_pressure;Samples;Min_cycle;Max_cycle;Signal;HPM_P1;HPM_P2
2023/10/23 00:02:05;;;;;;;224.32;25.63;;;;;;;;;;5029953;28;20041;-57
2023/10/23 00:04:30;;;;;;;184.80;23.48;;;;;;;;;;5030744;28;20017;-57
2023/10/23 00:06:55;;;;;;;228.50;25.38;;;;;;;;;;5029281;28;20084;-57
2023/10/23 00:09:20;;;;;;;254.65;23.75;;;;;;;;;;5030601;28;20560;-57
2023/10/23 00:11:46;;;;;;;135.18;20.00;;;;;;;;;;5029521;28;20038;-57
2023/10/23 00:14:11;;;;;;;22.20;15.70;;;;;;;;;;5030387;28;20025;-57
2023/10/23 00:16:36;;;;;;;24.55;16.23;;;;;;;;;;5028807;28;20061;-57
2023/10/23 00:19:01;;;;;;;27.07;16.67;;;;;;;;;;5030667;28;20067;-57
2023/10/23 00:21:26;;;;;;;27.65;18.70;;;;;;;;;;5029285;28;20030;-57
2023/10/23 00:23:51;;;;;;;27.87;18.57;;;;;;;;;;5030054;28;20087;-57
2023/10/23 00:26:17;;;;;;;28.10;16.77;;;;;;;;;;5029187;28;20527;-57
2023/10/23 00:28:42;;;;;;;30.30;19.15;;;;;;;;;;5030511;28;20048;-57
2023/10/23 00:31:07;;;;;;;237.53;28.40;;;;;;;;;;5028896;28;20264;-57
2023/10/23 00:33:33;;;;;;;116.43;18.17;;;;;;;;;;5030069;28;20025;-57
2023/10/23 00:35:58;;;;;;;75.23;18.90;;;;;;;;;;5028195;28;20037;-57
2023/10/23 00:38:23;;;;;;;89.47;18.48;;;;;;;;;;5030254;28;20448;-69
2023/10/23 00:40:48;;;;;;;48.03;21.33;;;;;;;;;;5018326;28;20069;-57
2023/10/23 00:43:23;;;;;;;45.50;19.27;;;;;;;;;;5010690;28;20053;-57
2023/10/23 00:45:55;;;;;;;134.40;24.63;;;;;;;;;;5009546;28;20054;-57
2023/10/23 00:48:21;;;;;;;218.90;34.58;;;;;;;;;;5010698;28;20021;-57
2023/10/23 00:50:47;;;;;;;121.47;28.05;;;;;;;;;;5020720;28;20030;-57
2023/10/23 00:53:12;;;;;;;363.60;37.55;;;;;;;;;;5033868;28;20495;-58
2023/10/23 00:55:38;;;;;;;148.48;30.25;;;;;;;;;;5032794;28;20080;-58
2023/10/23 00:58:03;;;;;;;127.45;31.48;;;;;;;;;;5033974;28;20060;-58
2023/10/23 01:00:29;;;;;;;157.30;24.70;;;;;;;;;;5032756;28;20529;-57
2023/10/23 01:02:54;;;;;;;67.80;20.20;;;;;;;;;;5033506;28;20116;-57
2023/10/23 01:05:19;;;;;;;51.42;20.35;;;;;;;;;;5032509;28;20040;-57
2023/10/23 01:07:44;;;;;;;178.52;36.10;;;;;;;;;;5034266;28;20535;-57
2023/10/23 01:10:09;;;;;;;200.87;32.57;;;;;;;;;;5026832;28;20037;-57
2023/10/23 01:12:35;;;;;;;264.43;39.30;;;;;;;;;;5014474;28;20455;-57
2023/10/23 01:15:00;;;;;;;211.00;34.95;;;;;;;;;;5012892;28;20503;-67
2023/10/23 01:17:25;;;;;;;195.97;34.07;;;;;;;;;;5014012;28;20022;-66
2023/10/23 01:19:50;;;;;;;223.00;33.13;;;;;;;;;;5012498;28;20045;-58
2023/10/23 01:22:16;;;;;;;219.77;33.97;;;;;;;;;;5014124;28;20532;-57
2023/10/23 01:24:42;;;;;;;174.23;31.30;;;;;;;;;;5011854;28;20460;-57
2023/10/23 01:27:08;;;;;;;229.35;34.97;;;;;;;;;;5013839;28;20045;-57
2023/10/23 01:29:33;;;;;;;163.52;31.23;;;;;;;;;;5012324;28;20022;-57
2023/10/23 01:31:58;;;;;;;117.07;27.13;;;;;;;;;;5013254;28;20484;-58
2023/10/23 01:34:23;;;;;;;163.80;30.20;;;;;;;;;;5013742;28;20049;-58
2023/10/23 01:36:48;;;;;;;161.07;32.53;;;;;;;;;;5012406;28;20536;-58
2023/10/23 01:39:14;;;;;;;140.93;27.87;;;;;;;;;;5013565;28;20053;-58
2023/10/23 01:41:39;;;;;;;136.75;31.15;;;;;;;;;;5012199;28;20448;-58
2023/10/23 01:44:04;;;;;;;107.47;27.23;;;;;;;;;;5013042;28;20053;-57
2023/10/23 01:46:29;;;;;;;129.30;25.75;;;;;;;;;;5010735;28;20482;-57
2023/10/23 01:48:54;;;;;;;55.47;23.15;;;;;;;;;;5013503;28;20026;-57
2023/10/23 01:51:20;;;;;;;38.40;24.13;;;;;;;;;;5026940;28;20479;-56
2023/10/23 01:53:45;;;;;;;30.97;20.90;;;;;;;;;;5032952;28;20032;-57
2023/10/23 01:56:10;;;;;;;98.17;26.70;;;;;;;;;;5031883;28;20507;-58
2023/10/23 01:58:35;;;;;;;59.80;24.03;;;;;;;;;;5033102;28;20463;-57
2023/10/23 02:01:01;;;;;;;71.07;21.97;;;;;;;;;;5031141;28;20037;-56
2023/10/23 02:03:26;;;;;;;40.03;20.38;;;;;;;;;;5033158;28;20435;-57
2023/10/23 02:05:51;;;;;;;130.23;26.23;;;;;;;;;;5030344;28;20369;-57
2023/10/23 02:08:18;;;;;;;155.60;28.87;;;;;;;;;;5032880;28;20045;-57
2023/10/23 02:10:44;;;;;;;84.90;23.42;;;;;;;;;;5028071;28;20057;-57
2023/10/23 02:13:09;;;;;;;136.25;27.48;;;;;;;;;;5032975;28;20443;-57
2023/10/23 02:15:34;;;;;;;97.75;24.58;;;;;;;;;;5031209;28;20535;-56
2023/10/23 02:18:00;;;;;;;105.10;25.50;;;;;;;;;;5032697;28;20024;-56
2023/10/23 02:20:27;;;;;;;102.50;27.10;;;;;;;;;;5031339;28;20099;-58
2023/10/23 02:22:52;;;;;;;92.38;22.55;;;;;;;;;;5032377;28;20037;-57
2023/10/23 02:25:17;;;;;;;97.97;23.67;;;;;;;;;;5031209;28;20033;-56
2023/10/23 02:27:43;;;;;;;123.95;27.17;;;;;;;;;;5033123;28;20432;-56
2023/10/23 02:30:08;;;;;;;148.82;28.25;;;;;;;;;;5030477;28;20144;-57
2023/10/23 02:32:33;;;;;;;29.17;19.15;;;;;;;;;;5032667;28;20025;-57
2023/10/23 02:34:59;;;;;;;45.55;21.42;;;;;;;;;;5030599;28;20041;-56
2023/10/23 02:37:24;;;;;;;36.72;20.83;;;;;;;;;;5032156;28;20049;-56
2023/10/23 02:39:49;;;;;;;63.77;23.67;;;;;;;;;;5030563;28;20036;-57
2023/10/23 02:42:14;;;;;;;112.47;23.33;;;;;;;;;;5032593;28;20176;-56
2023/10/23 02:44:39;;;;;;;34.20;16.83;;;;;;;;;;5030585;28;20026;-56
2023/10/23 02:47:04;;;;;;;33.45;19.67;;;;;;;;;;5032340;28;20025;-57
2023/10/23 02:49:30;;;;;;;24.23;17.93;;;;;;;;;;5032471;28;20022;-56
2023/10/23 02:51:55;;;;;;;35.80;20.73;;;;;;;;;;5030385;28;20457;-56
2023/10/23 02:54:20;;;;;;;49.80;23.77;;;;;;;;;;5032422;28;20021;-56
2023/10/23 02:56:45;;;;;;;47.77;24.20;;;;;;;;;;5030504;28;20041;-57
2023/10/23 02:59:10;;;;;;;159.57;24.05;;;;;;;;;;5031781;28;20582;-57
2023/10/23 03:01:37;;;;;;;31.30;19.13;;;;;;;;;;5030685;28;20033;-57
2023/10/23 03:04:02;;;;;;;29.45;18.25;;;;;;;;;;5031991;28;20476;-57
2023/10/23 03:06:27;;;;;;;32.55;19.52;;;;;;;;;;5030258;28;20036;-57
2023/10/23 03:08:53;;;;;;;29.33;20.87;;;;;;;;;;5031748;28;20530;-57
2023/10/23 03:11:18;;;;;;;37.38;23.05;;;;;;;;;;5029952;28;20048;-57
2023/10/23 03:13:43;;;;;;;37.30;23.20;;;;;;;;;;5030779;28;20091;-57
2023/10/23 03:16:08;;;;;;;36.43;23.87;;;;;;;;;;5029734;28;20052;-57
2023/10/23 03:18:33;;;;;;;33.73;22.50;;;;;;;;;;5031336;28;20428;-59
2023/10/23 03:20:59;;;;;;;27.23;19.13;;;;;;;;;;5030311;28;20029;-56
2023/10/23 03:23:25;;;;;;;41.35;24.08;;;;;;;;;;5030793;28;20468;-58
2023/10/23 03:25:50;;;;;;;70.90;21.00;;;;;;;;;;5029822;28;20040;-57
2023/10/23 03:28:15;;;;;;;439.50;42.80;;;;;;;;;;5031262;28;20044;-57
2023/10/23 03:30:40;;;;;;;317.27;30.90;;;;;;;;;;5029840;28;20811;-57
2023/10/23 03:33:05;;;;;;;301.10;32.22;;;;;;;;;;5030355;28;20044;-57
2023/10/23 03:35:31;;;;;;;52.07;22.33;;;;;;;;;;5029512;28;20043;-57
2023/10/23 03:37:56;;;;;;;132.07;25.33;;;;;;;;;;5030634;28;20017;-57
2023/10/23 03:40:21;;;;;;;41.50;21.70;;;;;;;;;;5029781;28;20120;-60
2023/10/23 03:42:49;;;;;;;132.80;27.17;;;;;;;;;;5031204;28;20024;-57
2023/10/23 03:45:14;;;;;;;139.98;32.50;;;;;;;;;;5029406;28;20492;-57
2023/10/23 03:47:40;;;;;;;203.23;31.33;;;;;;;;;;5031047;28;20096;-57
2023/10/23 03:50:06;;;;;;;179.53;36.00;;;;;;;;;;5029602;28;20033;-57
2023/10/23 03:52:31;;;;;;;160.02;31.20;;;;;;;;;;5031010;28;20025;-57
2023/10/23 03:54:56;;;;;;;161.98;33.90;;;;;;;;;;5029063;28;20033;-57
2023/10/23 03:57:21;;;;;;;135.48;30.90;;;;;;;;;;5031106;28;20025;-57
2023/10/23 03:59:46;;;;;;;146.33;34.60;;;;;;;;;;5029328;28;20017;-67
2023/10/23 04:02:11;;;;;;;145.00;32.20;;;;;;;;;;5031108;28;20424;-57
2023/10/23 04:04:38;;;;;;;173.13;33.63;;;;;;;;;;5029144;28;20024;-57
2023/10/23 04:07:04;;;;;;;112.35;31.02;;;;;;;;;;5029878;28;20392;-57
2023/10/23 04:09:29;;;;;;;159.30;34.88;;;;;;;;;;5030802;28;20021;-57
2023/10/23 04:11:54;;;;;;;197.43;36.13;;;;;;;;;;5028773;28;20045;-57
2023/10/23 04:14:20;;;;;;;225.38;34.92;;;;;;;;;;5028782;28;20072;-56
2023/10/23 04:16:45;;;;;;;211.57;35.57;;;;;;;;;;5028539;28;20492;-57
2023/10/23 04:19:11;;;;;;;162.10;31.80;;;;;;;;;;5030499;28;20454;-57
2023/10/23 04:21:39;;;;;;;104.83;27.13;;;;;;;;;;5027819;28;20128;-57
2023/10/23 04:24:04;;;;;;;166.63;29.13;;;;;;;;;;5030492;28;20025;-57
2023/10/23 04:26:29;;;;;;;180.85;34.85;;;;;;;;;;5028823;28;20049;-56
2023/10/23 04:28:54;;;;;;;170.43;35.57;;;;;;;;;;5029276;28;20057;-57
2023/10/23 04:31:20;;;;;;;97.40;29.67;;;;;;;;;;5028955;28;20040;-56
2023/10/23 04:33:45;;;;;;;185.13;32.35;;;;;;;;;;5028948;28;20136;-71
2023/10/23 04:36:10;;;;;;;111.33;30.10;;;;;;;;;;5028396;28;20065;-57
2023/10/23 04:38:35;;;;;;;153.85;32.42;;;;;;;;;;5029430;28;20539;-56
2023/10/23 04:41:00;;;;;;;162.07;34.53;;;;;;;;;;5027782;28;20037;-56
2023/10/23 04:43:25;;;;;;;96.60;27.97;;;;;;;;;;5030123;28;20439;-57
2023/10/23 04:45:52;;;;;;;96.63;29.77;;;;;;;;;;5028790;28;20488;-57
2023/10/23 04:48:18;;;;;;;93.97;28.30;;;;;;;;;;5030630;28;20432;-56
2023/10/23 04:50:43;;;;;;;128.02;34.42;;;;;;;;;;5028720;28;20124;-56
2023/10/23 04:53:08;;;;;;;84.32;28.52;;;;;;;;;;5030095;28;20017;-57
2023/10/23 04:55:34;;;;;;;83.23;26.90;;;;;;;;;;5029222;28;20037;-56
2023/10/23 04:58:00;;;;;;;91.30;30.90;;;;;;;;;;5030055;28;20100;-57
2023/10/23 05:00:25;;;;;;;114.60;34.08;;;;;;;;;;5029011;28;20061;-56
2023/10/23 05:02:50;;;;;;;94.95;30.20;;;;;;;;;;5030120;28;20489;-56
2023/10/23 05:05:16;;;;;;;96.25;29.65;;;;;;;;;;5028494;28;20033;-56
2023/10/23 05:07:42;;;;;;;92.15;29.35;;;;;;;;;;5030596;28;20456;-57
2023/10/23 05:10:07;;;;;;;160.75;33.72;;;;;;;;;;5028962;28;20033;-56
2023/10/23 05:12:33;;;;;;;131.60;30.90;;;;;;;;;;5030038;28;20025;-56
2023/10/23 05:14:58;;;;;;;137.63;35.00;;;;;;;;;;5028476;28;20040;-56
2023/10/23 05:17:24;;;;;;;140.80;33.67;;;;;;;;;;5030354;28;20416;-55
2023/10/23 05:19:49;;;;;;;190.48;37.45;;;;;;;;;;5028296;28;20036;-56
2023/10/23 05:22:14;;;;;;;113.22;34.70;;;;;;;;;;5030237;28;20021;-55
2023/10/23 05:24:43;;;;;;;141.60;34.97;;;;;;;;;;5028453;28;20051;-55
2023/10/23 05:27:08;;;;;;;150.98;36.03;;;;;;;;;;5029752;28;20025;-56
2023/10/23 05:29:33;;;;;;;173.32;39.17;;;;;;;;;;5028543;28;20029;-54
2023/10/23 05:31:59;;;;;;;171.70;39.47;;;;;;;;;;5030179;28;20064;-55
2023/10/23 05:34:24;;;;;;;162.68;38.00;;;;;;;;;;5029811;28;20091;-56
2023/10/23 05:36:49;;;;;;;91.90;33.42;;;;;;;;;;5029217;28;20048;-55
2023/10/23 05:39:14;;;;;;;170.10;38.90;;;;;;;;;;5033822;28;20086;-55
2023/10/23 05:41:39;;;;;;;128.57;37.00;;;;;;;;;;5031939;28;20043;-55
2023/10/23 05:44:05;;;;;;;228.20;44.38;;;;;;;;;;5033031;28;20010;-55
2023/10/23 05:46:30;;;;;;;156.70;38.58;;;;;;;;;;5032168;28;20124;-55
2023/10/23 05:48:55;;;;;;;195.80;38.87;;;;;;;;;;5033461;28;20060;-55
2023/10/23 05:51:21;;;;;;;172.13;38.05;;;;;;;;;;5031780;28;20542;-55
2023/10/23 05:53:46;;;;;;;188.88;38.22;;;;;;;;;;5033607;28;20025;-55
2023/10/23 05:56:12;;;;;;;220.57;41.23;;;;;;;;;;5031732;28;20038;-55
2023/10/23 05:58:37;;;;;;;164.53;36.53;;;;;;;;;;5032871;28;20432;-55
2023/10/23 06:01:03;;;;;;;144.40;37.30;;;;;;;;;;5031799;28;20036;-55
2023/10/23 06:03:28;;;;;;;213.90;42.10;;;;;;;;;;5033521;28;20025;-55
2023/10/23 06:05:53;;;;;;;241.50;41.90;;;;;;;;;;5031231;28;20401;-55
2023/10/23 06:08:19;;;;;;;186.55;36.17;;;;;;;;;;5033249;28;20100;-55
2023/10/23 06:10:44;;;;;;;265.10;42.10;;;;;;;;;;5030330;28;20034;-55
2023/10/23 06:13:09;;;;;;;221.65;41.65;;;;;;;;;;5032431;28;20052;-55
2023/10/23 06:15:34;;;;;;;212.48;40.10;;;;;;;;;;5031436;28;20033;-55
2023/10/23 06:18:00;;;;;;;184.48;38.22;;;;;;;;;;5033155;28;20013;-55
2023/10/23 06:20:25;;;;;;;143.60;34.33;;;;;;;;;;5031133;28;20551;-55
2023/10/23 06:22:50;;;;;;;130.47;36.00;;;;;;;;;;5032447;28;20172;-55
2023/10/23 06:25:16;;;;;;;95.30;36.37;;;;;;;;;;5029381;28;20026;-55
2023/10/23 06:27:41;;;;;;;90.15;31.45;;;;;;;;;;5030936;28;20053;-55
2023/10/23 06:30:07;;;;;;;158.63;35.80;;;;;;;;;;5029127;28;20048;-55
2023/10/23 06:32:35;;;;;;;131.55;34.42;;;;;;;;;;5032605;28;20029;-55
2023/10/23 06:35:00;;;;;;;150.65;36.67;;;;;;;;;;5026546;28;20141;-55
2023/10/23 06:37:25;;;;;;;141.32;34.50;;;;;;;;;;5031367;28;20055;-55
2023/10/23 06:39:50;;;;;;;114.97;32.75;;;;;;;;;;5030519;28;20423;-55
2023/10/23 06:42:16;;;;;;;132.17;35.57;;;;;;;;;;5031880;28;20010;-55
2023/10/23 06:44:41;;;;;;;150.27;38.07;;;;;;;;;;5030915;28;20033;-55
2023/10/23 06:47:07;;;;;;;136.80;34.90;;;;;;;;;;5031913;28;20157;-55
2023/10/23 06:49:32;;;;;;;159.35;39.15;;;;;;;;;;5030827;28;20022;-55
2023/10/23 06:51:57;;;;;;;121.33;37.43;;;;;;;;;;5030757;28;20091;-55
2023/10/23 06:54:23;;;;;;;119.00;36.27;;;;;;;;;;5031633;28;20436;-55
2023/10/23 06:56:49;;;;;;;96.00;36.95;;;;;;;;;;5029973;28;20612;-55
2023/10/23 06:59:14;;;;;;;92.93;37.97;;;;;;;;;;5032195;28;20021;-56
2023/10/23 07:01:39;;;;;;;92.07;36.63;;;;;;;;;;5030227;28;20488;-56
2023/10/23 07:04:04;;;;;;;83.90;37.80;;;;;;;;;;5031627;28;20010;-56
2023/10/23 07:06:29;;;;;;;70.67;35.23;;;;;;;;;;5030468;28;20032;-56
2023/10/23 07:08:54;;;;;;;94.90;39.67;;;;;;;;;;5032028;28;20041;-56
2023/10/23 07:11:21;;;;;;;78.07;37.90;;;;;;;;;;5030199;28;20196;-55
2023/10/23 07:13:46;;;;;;;78.45;39.10;;;;;;;;;;5031872;28;20028;-56
2023/10/23 07:16:12;;;;;;;76.40;38.55;;;;;;;;;;5030174;28;20034;-56
2023/10/23 07:18:37;;;;;;;70.18;40.45;;;;;;;;;;5029941;28;20029;-56
2023/10/23 07:21:02;;;;;;;72.95;36.63;;;;;;;;;;5030058;28;20037;-56
2023/10/23 07:23:31;;;;;;;76.32;38.13;;;;;;;;;;5031945;28;20052;-56
2023/10/23 07:26:00;;;;;;;85.57;39.33;;;;;;;;;;5029633;28;20037;-56
2023/10/23 07:28:25;;;;;;;78.97;36.22;;;;;;;;;;5031437;28;20496;-56
2023/10/23 07:30:51;;;;;;;75.83;37.97;;;;;;;;;;5016061;28;20041;-55
2023/10/23 07:33:16;;;;;;;78.15;37.05;;;;;;;;;;5010895;28;20026;-56
2023/10/23 07:35:41;;;;;;;74.60;37.80;;;;;;;;;;5027660;28;20037;-56
2023/10/23 07:38:06;;;;;;;74.47;35.47;;;;;;;;;;5031287;28;20376;-56
2023/10/23 07:40:31;;;;;;;79.78;39.13;;;;;;;;;;5029470;28;20460;-56
2023/10/23 07:42:57;;;;;;;68.63;35.27;;;;;;;;;;5030994;28;20063;-56
2023/10/23 07:45:23;;;;;;;59.92;33.85;;;;;;;;;;5029909;28;20507;-56
2023/10/23 07:47:48;;;;;;;63.00;34.63;;;;;;;;;;5031038;28;20021;-56
2023/10/23 07:50:14;;;;;;;65.72;36.30;;;;;;;;;;5029842;28;20056;-56
2023/10/23 07:52:39;;;;;;;57.45;32.85;;;;;;;;;;5031443;28;20024;-56
2023/10/23 07:55:04;;;;;;;74.32;35.80;;;;;;;;;;5029488;28;20029;-56
2023/10/23 07:57:29;;;;;;;73.40;34.40;;;;;;;;;;5030635;28;20061;-56
2023/10/23 07:59:55;;;;;;;58.13;35.13;;;;;;;;;;5029213;28;20110;-56
2023/10/23 08:02:20;;;;;;;62.70;35.47;;;;;;;;;;5030979;28;20779;-56
2023/10/23 08:04:45;;;;;;;51.20;34.07;;;;;;;;;;5029186;28;20072;-56
2023/10/23 08:07:10;;;;;;;51.72;31.23;;;;;;;;;;5031011;28;20426;-56
2023/10/23 08:09:35;;;;;;;56.35;32.00;;;;;;;;;;5029809;28;20025;-56
2023/10/23 08:12:00;;;;;;;57.20;30.83;;;;;;;;;;5030294;28;20524;-56
2023/10/23 08:14:26;;;;;;;50.53;28.77;;;;;;;;;;5030738;28;20048;-56
2023/10/23 08:16:52;;;;;;;57.77;31.27;;;;;;;;;;5029359;28;20048;-56
2023/10/23 08:19:18;;;;;;;43.38;28.00;;;;;;;;;;5017183;28;20053;-56
2023/10/23 08:21:43;;;;;;;48.83;23.00;;;;;;;;;;5009632;28;20125;-56
2023/10/23 08:24:08;;;;;;;34.40;22.83;;;;;;;;;;5010970;28;20097;-56
2023/10/23 08:26:33;;;;;;;38.38;22.73;;;;;;;;;;5008807;28;20038;-57
2023/10/23 08:28:59;;;;;;;55.87;28.43;;;;;;;;;;5009597;28;20445;-56
2023/10/23 08:31:24;;;;;;;38.37;23.30;;;;;;;;;;5009683;28;20068;-56
2023/10/23 08:33:49;;;;;;;34.70;22.47;;;;;;;;;;5010074;28;20045;-56
2023/10/23 08:36:14;;;;;;;33.95;19.23;;;;;;;;;;5009583;28;20104;-56
2023/10/23 08:38:39;;;;;;;30.00;20.97;;;;;;;;;;5011054;28;20492;-56
2023/10/23 08:41:05;;;;;;;30.93;20.90;;;;;;;;;;5008950;28;20452;-56
2023/10/23 08:43:30;;;;;;;23.15;18.88;;;;;;;;;;5011062;28;20057;-56
2023/10/23 08:45:58;;;;;;;27.98;18.98;;;;;;;;;;5009253;28;20377;-56
2023/10/23 08:48:23;;;;;;;28.07;18.23;;;;;;;;;;5010605;28;20018;-56
2023/10/23 08:50:49;;;;;;;28.90;18.87;;;;;;;;;;5009583;28;20040;-56
2023/10/23 08:53:14;;;;;;;27.50;19.90;;;;;;;;;;5010864;28;20026;-56
2023/10/23 08:55:40;;;;;;;28.73;19.38;;;;;;;;;;5022043;28;20044;-56
2023/10/23 08:58:05;;;;;;;25.88;16.95;;;;;;;;;;5029967;28;20060;-56
2023/10/23 09:00:30;;;;;;;27.55;18.17;;;;;;;;;;5028968;28;20033;-56
2023/10/23 09:02:58;;;;;;;26.80;15.73;;;;;;;;;;5030049;28;20030;-56
2023/10/23 09:05:24;;;;;;;20.07;14.70;;;;;;;;;;5029138;28;20065;-56
2023/10/23 09:07:49;;;;;;;28.88;18.17;;;;;;;;;;5030229;28;20048;-56
2023/10/23 09:10:14;;;;;;;22.43;14.83;;;;;;;;;;5028729;28;20026;-56
2023/10/23 09:12:40;;;;;;;31.38;14.55;;;;;;;;;;5032853;28;21012;-56
2023/10/23 09:15:12;;;;;;;21.65;14.38;;;;;;;;;;5032154;28;20057;-56
2023/10/23 09:17:37;;;;;;;33.42;15.65;;;;;;;;;;5033969;28;20362;-56
2023/10/23 09:20:18;;;;;;;20.23;12.30;;;;;;;;;;5031735;28;20047;-56
2023/10/23 09:22:47;;;;;;;20.27;13.90;;;;;;;;;;5033924;28;20531;-56
2023/10/23 09:25:14;;;;;;;22.25;11.35;;;;;;;;;;5032095;28;20037;-56
2023/10/23 09:27:39;;;;;;;18.88;13.20;;;;;;;;;;5034131;28;20029;-56
2023/10/23 09:30:05;;;;;;;30.08;15.77;;;;;;;;;;5031814;28;20094;-56
2023/10/23 09:32:30;;;;;;;23.30;13.40;;;;;;;;;;5033234;28;20040;-56
2023/10/23 09:34:56;;;;;;;23.13;12.73;;;;;;;;;;5030091;28;20061;-56
2023/10/23 09:37:23;;;;;;;14.57;11.80;;;;;;;;;;5033479;28;20476;-56
2023/10/23 09:39:50;;;;;;;20.88;12.30;;;;;;;;;;5030828;28;20025;-56
2023/10/23 09:42:15;;;;;;;18.00;12.25;;;;;;;;;;5032938;28;20009;-56
2023/10/23 09:44:42;;;;;;;17.57;13.43;;;;;;;;;;5032615;28;20017;-56
2023/10/23 09:47:09;;;;;;;19.33;14.75;;;;;;;;;;5033085;28;20036;-57
2023/10/23 09:49:35;;;;;;;19.60;10.63;;;;;;;;;;5033589;28;20029;-56
2023/10/23 09:52:01;;;;;;;19.02;11.82;;;;;;;;;;5031943;28;20480;-56
2023/10/23 09:54:28;;;;;;;17.08;13.02;;;;;;;;;;5033258;28;20110;-56
2023/10/23 09:56:53;;;;;;;26.20;12.73;;;;;;;;;;5031695;28;20045;-56
2023/10/23 09:59:21;;;;;;;16.70;11.23;;;;;;;;;;5033205;28;20025;-56
2023/10/23 10:01:50;;;;;;;12.23;10.75;;;;;;;;;;5027547;28;20053;-57
2023/10/23 10:04:25;;;;;;;17.05;11.50;;;;;;;;;;5030774;28;20380;-56
2023/10/23 10:06:52;;;;;;;15.07;11.27;;;;;;;;;;5028059;28;20508;-56
2023/10/23 10:09:17;;;;;;;16.98;11.13;;;;;;;;;;5032209;28;20189;-57
2023/10/23 10:11:43;;;;;;;27.35;13.07;;;;;;;;;;5031710;28;20263;-56
2023/10/23 10:14:09;;;;;;;16.13;12.27;;;;;;;;;;5032532;28;20848;-56
2023/10/23 10:16:36;;;;;;;17.05;11.15;;;;;;;;;;5031318;28;20088;-56
2023/10/23 10:19:01;;;;;;;20.25;11.85;;;;;;;;;;5030613;28;20025;-60
2023/10/23 10:21:27;;;;;;;14.02;10.32;;;;;;;;;;5031000;28;20046;-56
2023/10/23 10:23:52;;;;;;;17.55;12.05;;;;;;;;;;5029306;28;20017;-57
2023/10/23 10:26:18;;;;;;;19.20;10.13;;;;;;;;;;5031013;28;20037;-56
2023/10/23 10:28:50;;;;;;;17.73;11.15;;;;;;;;;;5031677;28;20013;-57
2023/10/23 10:31:15;;;;;;;19.42;10.15;;;;;;;;;;5030731;28;20479;-63
2023/10/23 10:33:41;;;;;;;16.70;12.10;;;;;;;;;;5032496;28;20084;-56
2023/10/23 10:36:07;;;;;;;29.33;12.52;;;;;;;;;;5030993;28;20082;-56
2023/10/23 10:38:32;;;;;;;17.58;11.25;;;;;;;;;;5032197;28;20096;-56
2023/10/23 10:41:05;;;;;;;20.48;11.52;;;;;;;;;;5030915;28;20045;-56
2023/10/23 10:43:32;;;;;;;16.90;10.57;;;;;;;;;;5032703;28;20013;-56
2023/10/23 10:45:57;;;;;;;17.70;12.00;;;;;;;;;;5030703;28;20040;-56
2023/10/23 10:48:24;;;;;;;17.45;12.63;;;;;;;;;;5032418;28;20021;-56
2023/10/23 10:50:49;;;;;;;14.48;10.70;;;;;;;;;;5030531;28;20044;-56
2023/10/23 10:53:15;;;;;;;19.60;13.20;;;;;;;;;;5031773;28;20025;-56
2023/10/23 10:55:42;;;;;;;13.98;11.25;;;;;;;;;;5030905;28;20048;-56
2023/10/23 10:58:09;;;;;;;18.65;11.80;;;;;;;;;;5032189;28;20428;-55
2023/10/23 11:00:35;;;;;;;18.23;10.83;;;;;;;;;;5030566;28;20045;-56
2023/10/23 11:03:00;;;;;;;17.98;11.50;;;;;;;;;;5032132;28;20520;-55
2023/10/23 11:05:26;;;;;;;16.15;11.80;;;;;;;;;;5030806;28;20069;-55
2023/10/23 11:07:51;;;;;;;16.38;10.02;;;;;;;;;;5031718;28;20017;-55
2023/10/23 11:10:17;;;;;;;11.00;7.93;;;;;;;;;;5030731;28;20029;-56
2023/10/23 11:12:42;;;;;;;19.27;11.40;;;;;;;;;;5032099;28;20053;-55
2023/10/23 11:15:07;;;;;;;17.83;10.77;;;;;;;;;;5029816;28;20492;-55
2023/10/23 11:17:33;;;;;;;16.20;10.70;;;;;;;;;;5032021;28;20013;-55
2023/10/23 11:19:58;;;;;;;22.67;11.73;;;;;;;;;;5030268;28;20381;-56
2023/10/23 11:22:25;;;;;;;22.23;12.38;;;;;;;;;;5031779;28;20981;-56
2023/10/23 11:24:50;;;;;;;25.25;11.30;;;;;;;;;;5029738;28;20017;-56
2023/10/23 11:27:16;;;;;;;17.53;10.10;;;;;;;;;;5030585;28;20014;-55
2023/10/23 11:29:42;;;;;;;13.30;9.90;;;;;;;;;;5030123;28;20440;-56
2023/10/23 11:32:07;;;;;;;18.95;11.63;;;;;;;;;;5030837;28;20009;-55
2023/10/23 11:34:35;;;;;;;14.05;9.73;;;;;;;;;;5029489;28;20401;-55
2023/10/23 11:37:00;;;;;;;18.38;11.40;;;;;;;;;;5029793;28;20487;-55
2023/10/23 11:39:27;;;;;;;21.58;11.57;;;;;;;;;;5028773;28;20056;-55
2023/10/23 11:41:56;;;;;;;18.92;11.18;;;;;;;;;;5029407;28;20044;-56
2023/10/23 11:44:21;;;;;;;15.07;9.50;;;;;;;;;;5031543;28;20009;-56
2023/10/23 11:46:47;;;;;;;11.85;8.57;;;;;;;;;;5029324;28;20116;-61
2023/10/23 11:49:12;;;;;;;10.00;7.50;;;;;;;;;;5031028;28;20036;-56
2023/10/23 11:51:37;;;;;;;13.20;9.13;;;;;;;;;;5029451;28;20501;-56
2023/10/23 11:54:04;;;;;;;20.87;9.23;;;;;;;;;;5030682;28;20029;-56
2023/10/23 11:56:29;;;;;;;13.50;7.25;;;;;;;;;;5028452;28;20555;-56
2023/10/23 11:58:55;;;;;;;14.15;9.10;;;;;;;;;;5030418;28;20125;-56
2023/10/23 12:01:20;;;;;;;12.57;8.73;;;;;;;;;;5029269;28;20041;-56
2023/10/23 12:03:45;;;;;;;16.40;8.47;;;;;;;;;;5031046;28;20477;-56
2023/10/23 12:06:11;;;;;;;19.30;9.88;;;;;;;;;;5029269;28;20540;-56
2023/10/23 12:08:36;;;;;;;9.40;7.67;;;;;;;;;;5030531;28;20092;-56
2023/10/23 12:11:02;;;;;;;17.07;9.13;;;;;;;;;;5029309;28;20037;-56
2023/10/23 12:13:28;;;;;;;13.10;9.48;;;;;;;;;;5031067;28;20384;-56
2023/10/23 12:15:53;;;;;;;14.67;7.70;;;;;;;;;;5028441;28;20282;-56
2023/10/23 12:18:18;;;;;;;10.63;7.00;;;;;;;;;;5027818;28;20440;-55
2023/10/23 12:20:43;;;;;;;15.43;9.10;;;;;;;;;;5029104;28;20037;-56
2023/10/23 12:23:09;;;;;;;10.63;8.67;;;;;;;;;;5030182;28;20021;-57
2023/10/23 12:25:34;;;;;;;11.95;9.70;;;;;;;;;;5029100;28;20528;-56
2023/10/23 12:27:59;;;;;;;12.57;8.77;;;;;;;;;;5030455;28;20021;-56
2023/10/23 12:30:25;;;;;;;17.87;8.13;;;;;;;;;;5028914;28;20026;-56
2023/10/23 12:32:51;;;;;;;13.75;9.48;;;;;;;;;;5029271;28;20427;-56
2023/10/23 12:35:16;;;;;;;11.90;6.82;;;;;;;;;;5029080;28;20049;-56
2023/10/23 12:37:41;;;;;;;14.48;7.97;;;;;;;;;;5030288;28;20496;-56
2023/10/23 12:40:11;;;;;;;14.73;7.07;;;;;;;;;;5028642;28;20057;-55
2023/10/23 12:42:37;;;;;;;11.38;8.48;;;;;;;;;;5030343;28;21013;-56
2023/10/23 12:45:03;;;;;;;16.45;7.07;;;;;;;;;;5028439;28;20551;-56
2023/10/23 12:47:28;;;;;;;9.63;6.50;;;;;;;;;;5032764;28;20029;-56
2023/10/23 12:49:53;;;;;;;9.37;7.03;;;;;;;;;;5032635;28;20314;-56
2023/10/23 12:52:18;;;;;;;10.30;7.53;;;;;;;;;;5034106;28;20014;-56
2023/10/23 12:54:44;;;;;;;14.27;6.57;;;;;;;;;;5032833;28;20540;-56
2023/10/23 12:57:09;;;;;;;11.95;6.63;;;;;;;;;;5034429;28;20013;-56
2023/10/23 12:59:35;;;;;;;10.97;7.07;;;;;;;;;;5034041;28;20403;-56
2023/10/23 13:02:00;;;;;;;9.85;6.65;;;;;;;;;;5032436;28;20054;-56
2023/10/23 13:04:25;;;;;;;12.25;6.57;;;;;;;;;;5034274;28;20021;-56
2023/10/23 13:06:51;;;;;;;12.87;7.87;;;;;;;;;;5032309;28;20101;-56
2023/10/23 13:09:16;;;;;;;11.60;8.25;;;;;;;;;;5034628;28;20022;-56
2023/10/23 13:11:42;;;;;;;10.23;7.80;;;;;;;;;;5032735;28;20034;-56
2023/10/23 13:14:07;;;;;;;14.65;8.80;;;;;;;;;;5033729;28;20503;-56
2023/10/23 13:16:32;;;;;;;10.50;8.33;;;;;;;;;;5029971;28;20034;-56
2023/10/23 13:18:57;;;;;;;10.90;8.13;;;;;;;;;;5032918;28;20034;-56
2023/10/23 13:21:22;;;;;;;12.97;9.53;;;;;;;;;;5032086;28;20029;-56
2023/10/23 13:23:47;;;;;;;12.47;8.03;;;;;;;;;;5034074;28;20408;-56
2023/10/23 13:26:13;;;;;;;18.17;7.97;;;;;;;;;;5032469;28;20038;-56
2023/10/23 13:28:38;;;;;;;16.43;8.90;;;;;;;;;;5033482;28;20435;-56
2023/10/23 13:31:03;;;;;;;14.47;8.50;;;;;;;;;;5032280;28;20452;-56
2023/10/23 13:33:28;;;;;;;13.20;9.03;;;;;;;;;;5033601;28;20034;-56
2023/10/23 13:35:53;;;;;;;17.40;6.75;;;;;;;;;;5031891;28;21054;-56
2023/10/23 13:38:18;;;;;;;17.10;10.80;;;;;;;;;;5033768;28;20022;-56
2023/10/23 13:40:44;;;;;;;16.27;7.70;;;;;;;;;;5032186;28;20021;-56
2023/10/23 13:43:09;;;;;;;12.30;6.87;;;;;;;;;;5033266;28;20024;-56
2023/10/23 13:45:34;;;;;;;11.52;6.68;;;;;;;;;;5032457;28;20094;-56
2023/10/23 13:48:00;;;;;;;10.00;8.13;;;;;;;;;;5033450;28;20519;-56
2023/10/23 13:50:25;;;;;;;29.00;22.95;;;;;;;;;;5033419;28;20436;-56
2023/10/23 13:52:50;;;;;;;13.60;8.20;;;;;;;;;;5031668;28;20121;-56
2023/10/23 13:55:15;;;;;;;23.70;13.88;;;;;;;;;;5030802;28;20515;-56
2023/10/23 13:57:41;;;;;;;14.60;9.77;;;;;;;;;;5030967;28;20041;-56
2023/10/23 14:00:06;;;;;;;16.10;12.15;;;;;;;;;;5032510;28;20517;-56
2023/10/23 14:02:31;;;;;;;11.93;8.85;;;;;;;;;;5031728;28;20059;-56
2023/10/23 14:04:57;;;;;;;16.85;11.57;;;;;;;;;;5033153;28;20388;-56
2023/10/23 14:07:22;;;;;;;15.82;10.05;;;;;;;;;;5031569;28;20053;-56